RAIN

Not for real navigation. The accuracy of this data is not assured See disclaimer for more information



ICAO NAME COUNTRY WIND Kt GUST Kt VIS m TEMP/DEW C BARO METAR
PAVA 13 0 400 0/0 30.04 PAVA 211856Z AUTO 17013KT 0.25SM FG OVC003 00/00 A3004 RMK AO2 SLP258 T00000000 FZRANO
KBID Block Island, Block Island Sta RI United States 16 0 400 8/8 30.23 KBID 211856Z AUTO 23016KT 0.25SM -RA FG OVC001 08/08 A3023 RMK AO2 SLP243 P0000 T00830083
PASM St. Mary’s, St. Mary’s Airport AK United States 11 0 400 1/1 30.09 PASM 211856Z AUTO 17011KT 0.25SM -RA FG OVC002 01/01 A3009 RMK AO2 SLP208 P0000 T00060006 FZRANO
PAMB 7 0 400 -3/-3 30.36 PAMB 211856Z AUTO 05007KT 0.25SM FZFG OVC005 M03/M03 A3036 RMK AO2 SLP287 T10281033 FZRANO $
PAHP Hooper Bay, Hooper Bay Airport AK United States 14 0 400 -1/-1 30.00 PAHP 211856Z AUTO 19014KT 0.25SM UP FZFG OVC002 M01/M01 A3000 RMK AO2 SLP195 P0000 T10061006 FZRANO

Show more